Time;durP1;ratioP1;P1;durP2;ratioP2;P2;SDS_P1;SDS_P2;PMS_P1;PMS_P2;Temp;Humidity;BMP_temperature;BMP_pressure;BME280_temperature;BME280_humidity;BME280_pressure;Samples;Min_cycle;Max_cycle;Signal;HPM_P1;HPM_P2
2022/03/09 00:00:10;;;;;;;85.63;26.03;;;0.50;1.00;;;;;;4397966;28;658830;-71
2022/03/09 00:02:59;;;;;;;81.27;25.97;;;0.50;1.00;;;;;;4379475;28;659120;-71
2022/03/09 00:05:46;;;;;;;70.23;23.43;;;0.50;5.10;;;;;;4379435;28;659248;-71
2022/03/09 00:08:34;;;;;;;67.43;23.97;;;0.50;1.00;;;;;;4397744;28;659437;-71
2022/03/09 00:11:25;;;;;;;73.60;23.43;;;0.40;55.30;;;;;;4375752;28;658640;-71
2022/03/09 00:14:16;;;;;;;79.37;24.23;;;0.40;7.90;;;;;;4374095;28;661736;-71
2022/03/09 00:17:06;;;;;;;79.70;25.40;;;0.40;53.80;;;;;;4375410;28;660634;-71
2022/03/09 00:20:06;;;;;;;81.67;25.07;;;0.40;37.60;;;;;;4374093;28;660188;-71
2022/03/09 00:22:53;;;;;;;86.80;26.47;;;0.40;25.80;;;;;;4373629;28;660642;-71
2022/03/09 00:25:41;;;;;;;77.00;25.23;;;0.40;6.90;;;;;;4378123;28;659737;-71
2022/03/09 00:28:28;;;;;;;88.13;25.40;;;0.40;40.80;;;;;;4397497;28;659883;-71
2022/03/09 00:31:16;;;;;;;67.60;24.07;;;0.40;42.80;;;;;;4377640;28;659883;-71
2022/03/09 00:34:03;;;;;;;79.53;25.07;;;0.50;73.30;;;;;;4396191;28;661200;-71
2022/03/09 00:36:52;;;;;;;92.27;26.17;;;0.50;41.70;;;;;;4377505;28;660368;-71
2022/03/09 00:39:40;;;;;;;86.43;26.93;;;0.50;5.00;;;;;;4396311;28;659737;-71
2022/03/09 00:42:27;;;;;;;82.33;27.63;;;0.50;1.00;;;;;;4374535;28;660077;-71
2022/03/09 00:45:15;;;;;;;90.37;26.63;;;0.50;1.00;;;;;;4397602;28;658511;-71
2022/03/09 00:48:02;;;;;;;81.00;26.17;;;0.50;1.00;;;;;;4374840;28;660665;-71
2022/03/09 00:50:49;;;;;;;81.13;26.73;;;0.50;1.00;;;;;;4397026;28;658740;-71
2022/03/09 00:53:39;;;;;;;82.30;26.43;;;0.50;1.00;;;;;;4373884;28;659440;-71
2022/03/09 00:56:28;;;;;;;80.17;25.90;;;0.50;1.00;;;;;;4378020;28;659026;-71
2022/03/09 00:59:17;;;;;;;92.70;27.30;;;0.50;1.00;;;;;;4378021;28;659022;-71
2022/03/09 01:02:07;;;;;;;78.97;26.15;;;0.50;1.00;;;;;;4394173;28;659004;-71
2022/03/09 01:04:58;;;;;;;78.33;28.23;;;0.50;1.00;;;;;;4374296;28;658230;-71
2022/03/09 01:07:46;;;;;;;82.03;26.47;;;0.50;1.00;;;;;;4371369;28;658513;-71
2022/03/09 01:10:34;;;;;;;76.07;27.63;;;0.50;1.00;;;;;;4400580;28;659122;-71
2022/03/09 01:13:22;;;;;;;80.80;26.70;;;0.40;1.00;;;;;;4380958;28;659453;-71
2022/03/09 01:16:09;;;;;;;72.23;26.53;;;0.40;1.00;;;;;;4396708;28;658847;-71
2022/03/09 01:18:57;;;;;;;86.53;27.37;;;0.40;1.00;;;;;;4378533;28;659363;-71
2022/03/09 01:21:44;;;;;;;82.07;26.73;;;0.40;1.00;;;;;;4389389;28;659141;-71
2022/03/09 01:24:32;;;;;;;73.53;26.73;;;0.40;1.00;;;;;;4374068;28;658518;-71
2022/03/09 01:27:20;;;;;;;72.77;27.23;;;0.40;1.00;;;;;;4396778;28;659050;-71
2022/03/09 01:30:09;;;;;;;75.30;25.80;;;0.30;1.00;;;;;;4372262;28;660194;-71
2022/03/09 01:32:56;;;;;;;77.40;26.17;;;0.30;23.20;;;;;;4377894;28;658894;-71
2022/03/09 01:35:44;;;;;;;75.87;26.07;;;0.30;54.20;;;;;;4395139;28;659732;-71
2022/03/09 01:38:31;;;;;;;85.00;27.33;;;0.30;74.30;;;;;;4376685;28;659606;-71
2022/03/09 01:41:19;;;;;;;71.83;26.13;;;0.30;96.90;;;;;;4394754;28;660115;-71
2022/03/09 01:44:11;;;;;;;76.03;25.63;;;0.40;86.40;;;;;;4376782;28;660225;-71
2022/03/09 01:46:59;;;;;;;67.63;25.23;;;0.40;41.70;;;;;;4372305;28;660011;-71
2022/03/09 01:49:46;;;;;;;65.53;24.60;;;0.40;99.90;;;;;;4376358;28;659635;-71
2022/03/09 01:52:34;;;;;;;84.07;26.30;;;0.40;92.90;;;;;;4394760;28;659968;-71
2022/03/09 01:55:22;;;;;;;77.80;24.70;;;0.50;94.60;;;;;;4375018;28;659790;-71
2022/03/09 01:58:09;;;;;;;70.73;25.33;;;0.50;76.80;;;;;;4398822;28;659279;-71
2022/03/09 02:00:59;;;;;;;80.83;26.37;;;0.50;86.50;;;;;;4370863;28;661055;-71
2022/03/09 02:03:47;;;;;;;76.80;25.33;;;0.50;84.40;;;;;;4369914;28;660699;-71
2022/03/09 02:06:36;;;;;;;71.67;24.67;;;0.50;99.90;;;;;;4394524;28;660408;-71
2022/03/09 02:12:28;;;;;;;68.80;24.43;;;0.50;99.90;;;;;;4380918;28;660649;-71
2022/03/09 02:15:15;;;;;;;68.37;25.37;;;0.50;99.90;;;;;;4375408;28;659512;-71
2022/03/09 02:18:05;;;;;;;73.93;25.27;;;0.50;99.90;;;;;;4394544;28;661149;-71
2022/03/09 02:20:53;;;;;;;72.90;27.17;;;0.50;99.90;;;;;;4371970;28;661068;-71
2022/03/09 02:23:42;;;;;;;74.67;25.63;;;0.50;99.90;;;;;;4377714;28;659948;-71
2022/03/09 02:26:29;;;;;;;73.70;27.07;;;0.50;99.90;;;;;;4394801;28;659819;-71
2022/03/09 02:29:17;;;;;;;74.53;26.73;;;0.50;99.90;;;;;;4375808;28;660108;-71
2022/03/09 02:32:05;;;;;;;74.43;27.97;;;0.50;99.90;;;;;;4394692;28;659977;-71
2022/03/09 02:34:52;;;;;;;80.60;28.87;;;0.50;99.90;;;;;;4371517;28;661071;-71
2022/03/09 02:37:40;;;;;;;75.07;28.33;;;0.50;99.90;;;;;;4394207;28;659523;-71
2022/03/09 02:40:29;;;;;;;79.13;28.97;;;0.50;99.90;;;;;;4372013;28;660735;-71
2022/03/09 02:43:16;;;;;;;78.93;30.13;;;0.50;99.90;;;;;;4375499;28;659886;-71
2022/03/09 02:46:04;;;;;;;78.03;29.50;;;0.50;99.90;;;;;;4394245;28;660134;-71
2022/03/09 02:48:52;;;;;;;81.40;30.33;;;0.50;99.90;;;;;;4375602;28;659750;-71
2022/03/09 02:51:39;;;;;;;75.47;30.13;;;0.50;99.90;;;;;;4394708;28;660522;-71
2022/03/09 02:54:27;;;;;;;89.37;32.03;;;0.50;99.90;;;;;;4375091;28;659896;-71
2022/03/09 02:57:16;;;;;;;89.35;31.90;;;0.50;1.00;;;;;;4391476;28;659896;-71
2022/03/09 03:00:04;;;;;;;94.10;32.83;;;0.50;1.00;;;;;;4372941;28;658949;-71
2022/03/09 03:02:52;;;;;;;90.23;33.30;;;0.50;1.00;;;;;;4376159;28;658889;-71
2022/03/09 03:05:39;;;;;;;83.87;32.13;;;0.60;1.00;;;;;;4387287;28;658852;-71
2022/03/09 03:08:27;;;;;;;90.30;33.43;;;0.60;1.00;;;;;;4376764;28;659005;-71
2022/03/09 03:11:14;;;;;;;91.37;34.50;;;0.60;1.00;;;;;;4395315;28;658820;-71
2022/03/09 03:14:03;;;;;;;95.70;34.70;;;0.60;1.00;;;;;;4376707;28;658563;-71
2022/03/09 03:16:50;;;;;;;87.80;35.23;;;0.60;1.00;;;;;;4378379;28;659123;-71
2022/03/09 03:19:38;;;;;;;102.33;36.43;;;0.60;1.00;;;;;;4398814;28;659974;-71
2022/03/09 03:22:25;;;;;;;107.20;36.47;;;0.60;1.00;;;;;;4377975;28;659719;-71
2022/03/09 03:25:13;;;;;;;100.97;37.27;;;0.60;99.90;;;;;;4397388;28;661709;-71
2022/03/09 03:28:01;;;;;;;98.57;37.43;;;0.60;99.90;;;;;;4377526;28;660572;-71
2022/03/09 03:30:50;;;;;;;93.80;35.67;;;0.60;99.90;;;;;;4401563;28;660071;-71
2022/03/09 03:33:38;;;;;;;92.40;37.15;;;0.60;99.90;;;;;;4378632;28;660366;-71
2022/03/09 03:36:25;;;;;;;89.43;35.90;;;0.60;99.90;;;;;;4388267;28;659492;-71
2022/03/09 03:39:14;;;;;;;93.23;34.80;;;0.60;99.90;;;;;;4397402;28;661124;-71
2022/03/09 03:42:02;;;;;;;88.67;34.70;;;0.60;99.90;;;;;;4373639;28;659541;-71
2022/03/09 03:44:49;;;;;;;86.70;35.03;;;0.60;99.90;;;;;;4397188;28;659859;-71
2022/03/09 03:47:38;;;;;;;86.83;34.70;;;0.60;99.90;;;;;;4378731;28;659624;-71
2022/03/09 03:50:26;;;;;;;86.67;33.80;;;0.60;99.90;;;;;;4378463;28;659950;-71
2022/03/09 03:53:13;;;;;;;85.97;34.00;;;0.60;99.90;;;;;;4399962;28;660289;-71
2022/03/09 03:56:00;;;;;;;94.60;34.93;;;0.60;99.90;;;;;;4377391;28;659552;-71
2022/03/09 03:58:48;;;;;;;97.27;37.50;;;0.60;99.90;;;;;;4394362;28;660421;-71
2022/03/09 04:01:36;;;;;;;100.40;37.43;;;0.60;99.90;;;;;;4378031;28;659967;-71
2022/03/09 04:04:24;;;;;;;89.97;35.53;;;0.60;99.90;;;;;;4399863;28;661405;-71
2022/03/09 04:07:12;;;;;;;91.50;36.03;;;0.60;99.90;;;;;;4378013;28;660972;-71
2022/03/09 04:09:59;;;;;;;92.32;36.20;;;0.60;99.90;;;;;;4386343;28;659664;-71
2022/03/09 04:12:47;;;;;;;96.87;36.03;;;0.60;99.90;;;;;;4377508;28;660148;-71
2022/03/09 04:15:34;;;;;;;95.73;35.43;;;0.50;99.90;;;;;;4396694;28;660026;-71
2022/03/09 04:18:22;;;;;;;101.00;36.43;;;0.50;1.00;;;;;;4374009;28;660533;-71
2022/03/09 04:21:11;;;;;;;100.40;37.03;;;0.50;1.00;;;;;;4396514;28;660061;-72
2022/03/09 04:23:58;;;;;;;90.80;35.87;;;0.50;99.90;;;;;;4373309;28;660738;-71
2022/03/09 04:26:46;;;;;;;95.53;36.57;;;0.50;1.00;;;;;;4376994;28;659619;-71
2022/03/09 04:29:33;;;;;;;91.20;36.63;;;0.50;1.00;;;;;;4398245;28;660054;-71
2022/03/09 04:32:21;;;;;;;108.97;39.50;;;0.50;1.00;;;;;;4378685;28;658748;-71
2022/03/09 04:35:09;;;;;;;98.43;37.93;;;0.50;1.00;;;;;;4398915;28;660539;-71
2022/03/09 04:37:58;;;;;;;104.33;38.93;;;0.40;1.00;;;;;;4378519;28;658575;-71
2022/03/09 04:40:46;;;;;;;101.00;38.03;;;0.40;1.00;;;;;;4376989;28;659578;-71
2022/03/09 04:43:33;;;;;;;97.20;37.10;;;0.40;1.00;;;;;;4400015;28;660140;-71
2022/03/09 04:46:21;;;;;;;100.53;37.23;;;0.50;1.00;;;;;;4378297;28;658642;-71
2022/03/09 04:49:08;;;;;;;103.67;39.00;;;0.50;1.00;;;;;;4398660;28;660062;-71
2022/03/09 04:51:56;;;;;;;102.77;38.37;;;0.50;1.00;;;;;;4376620;28;659626;-71
2022/03/09 04:54:45;;;;;;;102.20;38.27;;;0.50;1.00;;;;;;4394798;28;660595;-71
2022/03/09 04:57:34;;;;;;;98.93;36.33;;;0.50;1.00;;;;;;4372159;28;661563;-71
2022/03/09 05:00:21;;;;;;;93.40;35.63;;;0.50;1.00;;;;;;4377475;28;658442;-71
2022/03/09 05:03:09;;;;;;;99.00;35.60;;;0.50;1.00;;;;;;4395906;28;659067;-71
2022/03/09 05:05:56;;;;;;;104.03;37.47;;;0.50;1.00;;;;;;4366516;28;658643;-71
2022/03/09 05:08:44;;;;;;;92.93;35.90;;;0.50;1.00;;;;;;4394088;28;661159;-71
2022/03/09 05:11:33;;;;;;;96.43;39.47;;;0.50;1.00;;;;;;4367081;28;658738;-71
2022/03/09 05:14:20;;;;;;;109.73;42.80;;;0.50;1.00;;;;;;4370437;28;658851;-71
2022/03/09 05:17:08;;;;;;;115.40;44.83;;;0.30;1.00;;;;;;4377366;28;660771;-71
2022/03/09 05:19:55;;;;;;;121.77;47.50;;;0.40;99.90;;;;;;4369712;28;660421;-71
2022/03/09 05:22:43;;;;;;;108.97;43.37;;;0.30;99.90;;;;;;4394293;28;662344;-71
2022/03/09 05:25:30;;;;;;;144.03;54.90;;;0.30;99.90;;;;;;4373899;28;661232;-71
2022/03/09 05:28:19;;;;;;;157.83;60.30;;;0.20;99.90;;;;;;4393357;28;663037;-71
2022/03/09 05:31:07;;;;;;;166.03;62.60;;;0.30;1.00;;;;;;4370602;28;660601;-71
2022/03/09 05:33:54;;;;;;;168.17;62.63;;;0.20;1.00;;;;;;4393304;28;659708;-71
2022/03/09 05:36:41;;;;;;;179.20;68.77;;;0.30;1.00;;;;;;4367299;28;660248;-71
2022/03/09 05:39:29;;;;;;;165.23;62.23;;;0.30;1.00;;;;;;4395094;28;659958;-71
2022/03/09 05:42:16;;;;;;;182.20;68.13;;;0.10;1.00;;;;;;4376456;28;659692;-71
2022/03/09 05:45:10;;;;;;;181.47;68.50;;;0.10;94.20;;;;;;4395312;28;660228;-71
2022/03/09 05:47:57;;;;;;;171.27;65.13;;;0.10;99.90;;;;;;4375394;28;660832;-71
2022/03/09 05:50:53;;;;;;;179.03;69.27;;;0.10;99.90;;;;;;4393525;28;660428;-71
2022/03/09 05:53:44;;;;;;;176.80;66.97;;;0.10;99.90;;;;;;4352033;28;660726;-71
2022/03/09 05:56:32;;;;;;;179.67;66.83;;;0.10;99.90;;;;;;4371913;28;660730;-71
2022/03/09 05:59:23;;;;;;;179.60;69.97;;;0.00;1.00;;;;;;4394713;28;661272;-71
2022/03/09 06:02:16;;;;;;;177.17;66.67;;;0.10;1.00;;;;;;4354538;28;661041;-71
2022/03/09 06:05:07;;;;;;;191.60;68.03;;;0.00;1.00;;;;;;4372135;28;660565;-71
2022/03/09 06:08:00;;;;;;;179.27;70.23;;;0.10;1.00;;;;;;4373060;28;660468;-71
2022/03/09 06:10:48;;;;;;;173.30;66.93;;;0.10;1.00;;;;;;4377384;28;659513;-71
2022/03/09 06:13:35;;;;;;;165.57;63.07;;;0.10;99.90;;;;;;4388224;28;659842;-71
2022/03/09 06:16:23;;;;;;;165.97;64.40;;;0.10;92.80;;;;;;4394903;28;662653;-71
2022/03/09 06:19:12;;;;;;;180.63;68.97;;;0.20;1.00;;;;;;4375436;28;660785;-71
2022/03/09 06:21:59;;;;;;;180.83;67.00;;;0.20;1.00;;;;;;4395049;28;659802;-71
2022/03/09 06:24:47;;;;;;;168.67;66.77;;;0.20;1.00;;;;;;4376909;28;660975;-72
2022/03/09 06:27:40;;;;;;;173.27;65.97;;;0.20;1.00;;;;;;4395675;28;660276;-71
2022/03/09 06:30:28;;;;;;;183.63;68.00;;;0.20;1.00;;;;;;4350121;28;660043;-71
2022/03/09 06:33:15;;;;;;;171.13;66.20;;;0.10;99.90;;;;;;4380879;28;659650;-71
2022/03/09 06:36:06;;;;;;;181.73;66.07;;;0.10;1.00;;;;;;4394449;28;662161;-71
2022/03/09 06:38:54;;;;;;;178.10;67.80;;;0.00;1.00;;;;;;4372774;28;660463;-71
2022/03/09 06:41:41;;;;;;;175.57;67.50;;;0.00;1.00;;;;;;4375595;28;659628;-71
2022/03/09 06:44:29;;;;;;;177.10;65.10;;;-0.10;99.90;;;;;;4395536;28;660994;-71
2022/03/09 06:47:17;;;;;;;168.23;63.30;;;0.00;92.80;;;;;;4369565;28;662626;-71
2022/03/09 06:50:06;;;;;;;169.00;62.03;;;0.10;99.90;;;;;;4376766;28;660174;-71
2022/03/09 06:52:54;;;;;;;190.33;72.93;;;0.00;1.00;;;;;;4375178;28;661044;-71
2022/03/09 06:55:42;;;;;;;172.77;68.83;;;0.00;3.50;;;;;;4380046;28;659809;-71
2022/03/09 06:58:29;;;;;;;194.93;71.47;;;0.00;99.90;;;;;;4401938;28;659801;-70
2022/03/09 07:01:17;;;;;;;187.93;69.47;;;0.10;99.90;;;;;;4376638;28;661045;-71
2022/03/09 07:04:04;;;;;;;186.40;72.50;;;0.10;41.70;;;;;;4394108;28;661253;-71
2022/03/09 07:06:52;;;;;;;191.70;70.97;;;0.10;99.90;;;;;;4378318;28;661145;-71
2022/03/09 07:09:41;;;;;;;204.63;74.43;;;0.10;1.00;;;;;;4381498;28;661167;-71
2022/03/09 07:12:28;;;;;;;177.53;70.30;;;0.20;1.00;;;;;;4381976;28;660706;-70
2022/03/09 07:15:16;;;;;;;175.83;72.10;;;0.10;1.00;;;;;;4379101;28;659531;-71
2022/03/09 07:18:03;;;;;;;210.50;73.50;;;0.20;99.90;;;;;;4397756;28;661116;-70
2022/03/09 07:20:51;;;;;;;185.03;70.50;;;0.20;1.00;;;;;;4377849;28;661031;-71
2022/03/09 07:23:38;;;;;;;183.80;72.17;;;0.20;1.00;;;;;;4399857;28;659732;-71
2022/03/09 07:26:27;;;;;;;193.43;73.73;;;0.30;1.00;;;;;;4378507;28;659762;-71
2022/03/09 07:29:17;;;;;;;198.57;72.23;;;0.30;1.00;;;;;;4397206;28;659663;-71
2022/03/09 07:32:05;;;;;;;201.17;78.30;;;0.40;1.00;;;;;;4374695;28;659726;-71
2022/03/09 07:34:53;;;;;;;195.57;75.37;;;0.50;1.00;;;;;;4375756;28;660415;-71
2022/03/09 07:37:40;;;;;;;194.90;75.43;;;0.50;99.90;;;;;;4389586;28;660423;-71
2022/03/09 07:40:28;;;;;;;192.90;76.33;;;0.70;99.90;;;;;;4387351;28;662449;-71
2022/03/09 07:43:17;;;;;;;199.27;77.90;;;0.70;1.00;;;;;;4377017;28;660789;-71
2022/03/09 07:46:05;;;;;;;194.83;78.73;;;0.80;1.00;;;;;;4392956;28;660130;-71
2022/03/09 07:48:53;;;;;;;185.33;71.83;;;0.80;1.00;;;;;;4373196;28;660787;-71
2022/03/09 07:51:41;;;;;;;182.03;73.70;;;1.00;1.00;;;;;;4386300;28;660145;-71
2022/03/09 07:54:28;;;;;;;188.77;75.37;;;1.00;1.00;;;;;;4400272;28;660723;-71
2022/03/09 07:57:16;;;;;;;178.70;68.73;;;1.10;99.90;;;;;;4378293;28;659728;-71
2022/03/09 08:00:06;;;;;;;202.30;77.20;;;1.10;62.60;;;;;;4397622;28;661227;-71
2022/03/09 08:02:53;;;;;;;195.40;78.67;;;1.10;99.90;;;;;;4372807;28;661190;-71
2022/03/09 08:05:43;;;;;;;191.93;73.93;;;1.10;99.90;;;;;;4376600;28;660759;-71
2022/03/09 08:08:31;;;;;;;173.47;69.37;;;1.20;30.20;;;;;;4377970;28;660945;-71
2022/03/09 08:11:18;;;;;;;196.67;76.00;;;1.30;99.90;;;;;;4389391;28;661954;-71
2022/03/09 08:14:06;;;;;;;171.95;65.78;;;1.40;1.00;;;;;;4376843;28;660785;-71
2022/03/09 08:16:54;;;;;;;173.83;67.77;;;1.50;1.00;;;;;;4400819;28;661063;-71
2022/03/09 08:19:42;;;;;;;175.20;69.90;;;1.60;1.00;;;;;;4374028;28;661356;-71
2022/03/09 08:22:30;;;;;;;177.80;71.73;;;1.60;99.90;;;;;;4396887;28;659824;-71
2022/03/09 08:25:17;;;;;;;183.43;71.77;;;1.70;1.00;;;;;;4372812;28;662135;-70
2022/03/09 08:28:05;;;;;;;149.70;60.20;;;1.80;99.90;;;;;;4385522;28;660584;-71
2022/03/09 08:30:54;;;;;;;174.47;67.80;;;1.80;99.90;;;;;;4376685;28;662030;-71
2022/03/09 08:33:43;;;;;;;165.33;65.30;;;1.90;99.90;;;;;;4373609;28;661344;-71
2022/03/09 08:36:30;;;;;;;170.85;69.35;;;1.90;99.90;;;;;;4375372;28;661006;-71
2022/03/09 08:39:18;;;;;;;180.10;67.90;;;2.00;99.90;;;;;;4395481;28;662377;-71
2022/03/09 08:42:06;;;;;;;180.93;67.23;;;2.10;99.90;;;;;;4373637;28;660608;-70
2022/03/09 08:44:54;;;;;;;179.33;71.67;;;2.20;1.00;;;;;;4395005;28;661745;-71
2022/03/09 08:47:41;;;;;;;173.83;68.63;;;2.30;1.00;;;;;;4377572;28;660099;-71
2022/03/09 08:50:30;;;;;;;169.17;68.23;;;2.50;1.00;;;;;;4396145;28;661104;-70
2022/03/09 08:53:18;;;;;;;168.37;67.90;;;2.60;1.00;;;;;;4377437;28;660392;-71
2022/03/09 08:56:07;;;;;;;151.30;61.40;;;2.80;1.00;;;;;;4385255;28;659990;-71
2022/03/09 08:58:55;;;;;;;164.88;61.90;;;2.90;1.00;;;;;;4395831;28;660441;-71
2022/03/09 09:01:42;;;;;;;155.07;62.57;;;3.10;99.90;;;;;;4377274;28;660444;-71
2022/03/09 09:04:30;;;;;;;153.70;61.70;;;3.20;1.00;;;;;;4389735;28;660693;-71
2022/03/09 09:07:20;;;;;;;149.17;63.30;;;3.40;99.90;;;;;;4396154;28;660626;-71
2022/03/09 09:10:08;;;;;;;155.83;60.90;;;3.60;99.90;;;;;;4372487;28;661740;-71
2022/03/09 09:12:57;;;;;;;142.97;55.70;;;3.70;99.90;;;;;;4383898;28;661087;-71
2022/03/09 09:15:45;;;;;;;130.97;53.67;;;3.90;99.90;;;;;;4387444;28;660481;-71
2022/03/09 09:18:32;;;;;;;129.23;52.03;;;3.90;99.90;;;;;;4375942;28;661733;-71
2022/03/09 09:21:23;;;;;;;138.67;54.73;;;3.80;99.90;;;;;;4392073;28;661230;-71
2022/03/09 09:24:12;;;;;;;126.65;51.53;;;3.80;99.90;;;;;;4380747;28;660967;-71
2022/03/09 09:26:59;;;;;;;131.00;56.15;;;3.80;99.90;;;;;;4394718;28;661076;-71
2022/03/09 09:29:47;;;;;;;117.43;49.30;;;3.90;99.90;;;;;;4375810;28;661459;-71
2022/03/09 09:32:35;;;;;;;115.23;49.13;;;4.00;99.90;;;;;;4398521;28;660427;-71
2022/03/09 09:35:23;;;;;;;123.10;50.20;;;4.10;99.90;;;;;;4371708;28;662423;-71
2022/03/09 09:38:11;;;;;;;117.13;48.37;;;4.20;99.90;;;;;;4375533;28;660496;-71
2022/03/09 09:41:00;;;;;;;114.80;46.93;;;4.20;99.90;;;;;;4394207;28;661398;-71
2022/03/09 09:43:47;;;;;;;114.93;48.90;;;4.20;92.30;;;;;;4363752;28;662169;-71
2022/03/09 09:46:39;;;;;;;111.77;45.33;;;4.10;99.90;;;;;;4393700;28;660666;-71
2022/03/09 09:49:26;;;;;;;117.17;49.93;;;4.30;79.70;;;;;;4352664;28;661141;-71
2022/03/09 09:52:15;;;;;;;119.00;49.93;;;4.20;68.80;;;;;;4394262;28;661629;-71
2022/03/09 09:55:03;;;;;;;119.83;49.17;;;4.30;92.20;;;;;;4366082;28;661159;-71
2022/03/09 09:57:52;;;;;;;116.67;48.40;;;4.50;61.50;;;;;;4382968;28;660763;-71
2022/03/09 10:00:39;;;;;;;111.45;47.22;;;4.50;82.50;;;;;;4393854;28;661358;-71
2022/03/09 10:03:27;;;;;;;112.47;45.70;;;4.80;46.70;;;;;;4370996;28;662201;-71
2022/03/09 10:06:14;;;;;;;126.37;44.23;;;4.80;1.00;;;;;;4393838;28;661972;-70
2022/03/09 10:09:04;;;;;;;109.23;43.97;;;5.00;1.00;;;;;;4367332;28;660617;-70
2022/03/09 10:11:52;;;;;;;109.47;45.53;;;5.10;1.00;;;;;;4372798;28;659595;-71
2022/03/09 10:14:46;;;;;;;107.30;43.73;;;5.20;1.00;;;;;;4394860;28;660219;-71
2022/03/09 10:17:34;;;;;;;93.77;40.37;;;5.30;1.00;;;;;;4372101;28;660243;-71
2022/03/09 10:20:23;;;;;;;77.70;31.60;;;5.40;1.00;;;;;;4377188;28;659701;-71
2022/03/09 10:23:11;;;;;;;91.10;35.73;;;5.50;1.00;;;;;;4377228;28;658560;-71
2022/03/09 10:26:01;;;;;;;79.27;32.53;;;5.50;1.00;;;;;;4395875;28;659541;-71
2022/03/09 10:29:00;;;;;;;57.67;23.93;;;5.50;1.00;;;;;;4366957;28;658863;-71
2022/03/09 10:31:50;;;;;;;71.23;28.87;;;5.50;1.00;;;;;;4376983;28;659180;-70
2022/03/09 10:34:38;;;;;;;59.57;26.23;;;5.60;1.00;;;;;;4377206;28;659080;-71
2022/03/09 10:37:25;;;;;;;52.03;22.70;;;5.70;1.00;;;;;;4381165;28;659372;-71
2022/03/09 10:40:14;;;;;;;51.03;22.30;;;5.70;1.00;;;;;;4391617;28;660432;-71
2022/03/09 10:43:10;;;;;;;48.43;20.80;;;5.80;1.00;;;;;;4375479;28;658863;-71
2022/03/09 10:46:02;;;;;;;57.80;22.80;;;5.70;1.00;;;;;;4345309;28;659814;-71
2022/03/09 10:48:55;;;;;;;52.27;22.07;;;5.70;1.00;;;;;;4367999;28;658628;-70
2022/03/09 10:51:43;;;;;;;45.40;19.17;;;5.80;1.00;;;;;;4372267;28;660218;-71
2022/03/09 10:54:34;;;;;;;40.63;16.27;;;6.00;1.00;;;;;;4375592;28;658656;-71
2022/03/09 10:57:30;;;;;;;45.77;18.60;;;6.00;1.00;;;;;;4361192;28;658608;-71
2022/03/09 11:00:33;;;;;;;47.33;20.90;;;6.00;1.00;;;;;;4332293;28;659455;-71
2022/03/09 11:03:22;;;;;;;43.30;18.00;;;6.10;1.00;;;;;;4350241;28;659093;-71
2022/03/09 11:06:11;;;;;;;42.23;17.07;;;6.20;1.00;;;;;;4377590;28;659178;-71
2022/03/09 11:08:58;;;;;;;39.10;16.33;;;6.40;1.00;;;;;;4350684;28;659678;-71
2022/03/09 11:11:48;;;;;;;42.63;16.93;;;6.40;1.00;;;;;;4359588;28;658488;-71
2022/03/09 11:14:36;;;;;;;44.13;17.08;;;6.50;1.00;;;;;;4364394;28;658891;-71
2022/03/09 11:17:23;;;;;;;30.13;12.30;;;6.80;1.00;;;;;;4378667;28;660342;-71
2022/03/09 11:20:12;;;;;;;39.03;14.63;;;7.10;1.00;;;;;;4358843;28;658631;-71
2022/03/09 11:23:01;;;;;;;21.35;8.95;;;7.20;1.00;;;;;;4366084;28;659199;-71
2022/03/09 11:25:50;;;;;;;20.58;8.73;;;7.40;1.00;;;;;;4356572;28;659121;-71
2022/03/09 11:28:39;;;;;;;17.27;8.27;;;7.60;1.00;;;;;;4356357;28;658735;-71
2022/03/09 11:31:28;;;;;;;17.73;8.27;;;7.90;1.00;;;;;;4360733;28;657362;-71
2022/03/09 11:34:36;;;;;;;20.25;7.97;;;8.00;1.00;;;;;;4359025;28;657929;-71
2022/03/09 11:37:36;;;;;;;16.27;7.20;;;8.10;1.00;;;;;;4357863;28;658374;-71
2022/03/09 11:40:28;;;;;;;16.70;7.03;;;8.20;1.00;;;;;;4359190;28;658647;-71
2022/03/09 11:43:28;;;;;;;20.57;7.47;;;8.40;1.00;;;;;;4363153;28;657419;-71
2022/03/09 11:46:16;;;;;;;17.05;7.35;;;8.50;1.00;;;;;;4339617;28;658086;-71
2022/03/09 11:49:04;;;;;;;17.53;6.43;;;8.10;1.00;;;;;;4384724;28;658798;-71
2022/03/09 11:52:06;;;;;;;15.23;6.10;;;8.10;1.00;;;;;;4363040;28;657830;-71
2022/03/09 11:54:55;;;;;;;15.65;6.30;;;8.20;1.00;;;;;;4358723;28;658536;-71
2022/03/09 11:58:08;;;;;;;19.00;7.10;;;8.40;1.00;;;;;;4379548;28;658533;-71
2022/03/09 12:01:03;;;;;;;19.03;6.50;;;8.50;1.00;;;;;;4359892;28;657543;-71
2022/03/09 12:03:51;;;;;;;16.67;6.00;;;8.70;1.00;;;;;;4364794;28;657840;-71
2022/03/09 12:06:41;;;;;;;18.07;6.57;;;8.90;1.00;;;;;;4403017;28;657749;-71
2022/03/09 12:10:00;;;;;;;14.70;5.93;;;9.00;1.00;;;;;;4366077;28;658432;-71
2022/03/09 12:13:11;;;;;;;13.87;5.97;;;9.40;1.00;;;;;;4353208;28;658767;-71
2022/03/09 12:16:19;;;;;;;13.43;6.13;;;9.80;1.00;;;;;;4376489;28;658285;-71
2022/03/09 12:19:08;;;;;;;19.20;6.20;;;10.00;1.00;;;;;;4380615;28;657693;-71
2022/03/09 12:22:05;;;;;;;13.37;5.87;;;10.20;1.00;;;;;;4379159;28;658550;-71
2022/03/09 12:24:53;;;;;;;17.30;6.60;;;10.20;1.00;;;;;;4375021;28;659524;-71
2022/03/09 12:27:40;;;;;;;12.20;5.80;;;10.30;1.00;;;;;;4379156;28;658821;-71
2022/03/09 12:30:42;;;;;;;10.97;5.23;;;10.10;1.00;;;;;;4398126;28;660616;-71
2022/03/09 12:33:30;;;;;;;17.27;5.93;;;10.20;1.00;;;;;;4375150;28;659188;-71
2022/03/09 12:36:18;;;;;;;15.18;6.00;;;10.60;1.00;;;;;;4379017;28;659533;-71
2022/03/09 12:39:07;;;;;;;15.37;5.57;;;10.30;1.00;;;;;;4378906;28;658426;-71
2022/03/09 12:41:56;;;;;;;10.60;4.60;;;10.40;1.00;;;;;;4396967;28;658679;-72
2022/03/09 12:44:44;;;;;;;8.60;4.63;;;10.50;1.00;;;;;;4374636;28;659491;-71
2022/03/09 12:47:35;;;;;;;14.03;5.70;;;10.40;1.00;;;;;;4378318;28;657653;-71
2022/03/09 12:50:23;;;;;;;11.47;4.50;;;10.60;1.00;;;;;;4365334;28;660410;-71
2022/03/09 12:53:10;;;;;;;9.57;4.40;;;10.90;1.00;;;;;;4378181;28;658925;-71
2022/03/09 12:55:58;;;;;;;13.83;5.37;;;10.90;1.00;;;;;;4397940;28;659132;-71
2022/03/09 12:58:45;;;;;;;12.70;5.57;;;11.20;1.00;;;;;;4378731;28;659379;-71
2022/03/09 13:01:33;;;;;;;15.53;6.20;;;11.70;1.00;;;;;;4397426;28;660659;-71
2022/03/09 13:04:23;;;;;;;12.07;5.60;;;11.90;1.00;;;;;;4378302;28;658466;-71
2022/03/09 13:07:12;;;;;;;13.93;6.37;;;12.00;1.00;;;;;;4379834;28;659169;-71
2022/03/09 13:10:06;;;;;;;12.63;6.30;;;12.50;1.00;;;;;;4386805;28;660261;-71
2022/03/09 13:12:58;;;;;;;14.27;6.60;;;13.00;1.00;;;;;;4368168;28;659269;-71
2022/03/09 13:15:48;;;;;;;14.70;7.07;;;13.50;1.00;;;;;;4378245;28;658612;-71
2022/03/09 13:18:35;;;;;;;14.10;6.77;;;13.80;1.00;;;;;;4382262;28;658441;-71
2022/03/09 13:21:26;;;;;;;14.97;6.57;;;13.70;1.00;;;;;;4396464;28;660376;-71
2022/03/09 13:24:14;;;;;;;18.80;7.00;;;14.10;1.00;;;;;;4374073;28;659349;-71
2022/03/09 13:27:14;;;;;;;13.90;6.00;;;14.10;1.00;;;;;;4377676;28;658995;-71
2022/03/09 13:30:15;;;;;;;11.90;5.53;;;14.40;1.00;;;;;;4375210;28;658489;-71
2022/03/09 13:33:11;;;;;;;14.27;6.03;;;13.70;1.00;;;;;;4351091;28;659989;-70
2022/03/09 13:35:59;;;;;;;11.30;5.10;;;13.40;1.00;;;;;;4372030;28;658995;-71
2022/03/09 13:38:57;;;;;;;14.57;5.50;;;13.60;1.00;;;;;;4377884;28;658659;-71
2022/03/09 13:41:45;;;;;;;10.23;5.40;;;14.30;1.00;;;;;;4369988;28;658539;-71
2022/03/09 13:44:33;;;;;;;10.17;4.87;;;14.80;1.00;;;;;;4396799;28;660593;-71
2022/03/09 13:47:21;;;;;;;14.63;5.20;;;15.10;1.00;;;;;;4377687;28;658492;-71
2022/03/09 13:50:17;;;;;;;13.53;4.97;;;15.80;1.00;;;;;;4399714;28;659909;-71
2022/03/09 13:53:12;;;;;;;7.80;4.63;;;16.00;1.00;;;;;;4373613;28;658448;-71
2022/03/09 13:56:01;;;;;;;11.93;5.50;;;17.50;1.00;;;;;;4374713;28;658089;-71
2022/03/09 13:58:51;;;;;;;12.83;5.63;;;17.50;1.00;;;;;;4373745;28;660064;-71
2022/03/09 14:01:38;;;;;;;11.57;5.90;;;17.60;1.00;;;;;;4373841;28;659427;-71
2022/03/09 14:04:26;;;;;;;13.17;5.97;;;17.90;1.00;;;;;;4377941;28;658522;-71
2022/03/09 14:07:13;;;;;;;11.20;5.40;;;17.80;1.00;;;;;;4398801;28;658549;-71
2022/03/09 14:10:15;;;;;;;11.23;5.87;;;19.30;1.00;;;;;;4367188;28;658694;-71
2022/03/09 14:13:11;;;;;;;10.90;5.30;;;19.60;1.00;;;;;;4348590;28;659052;-71
2022/03/09 14:15:59;;;;;;;10.03;5.23;;;19.50;1.00;;;;;;4377014;28;658829;-71
2022/03/09 14:18:52;;;;;;;13.93;5.87;;;19.50;1.00;;;;;;4377237;28;659594;-71
2022/03/09 14:21:40;;;;;;;15.37;6.00;;;18.30;1.00;;;;;;4373371;28;658809;-71
2022/03/09 14:24:30;;;;;;;11.73;5.33;;;17.20;1.00;;;;;;4377404;28;659748;-71